createdAt,value
2023-04-21T00:01:10.061Z,10.80
2023-04-21T00:03:41.989Z,10.80
2023-04-21T00:06:12.357Z,10.30
2023-04-21T00:08:42.067Z,10.20
2023-04-21T00:11:09.894Z,10.50
2023-04-21T00:13:37.070Z,10.30
2023-04-21T00:16:04.463Z,10.30
2023-04-21T00:18:31.864Z,10.00
2023-04-21T00:20:59.058Z,10.40
2023-04-21T00:23:26.164Z,10.20
2023-04-21T00:25:53.735Z,10.50
2023-04-21T00:28:20.867Z,9.90
2023-04-21T00:30:47.894Z,10.20
2023-04-21T00:33:15.089Z,10.40
2023-04-21T00:35:42.163Z,10.10
2023-04-21T00:38:09.194Z,10.30
2023-04-21T00:40:36.224Z,10.10
2023-04-21T00:43:07.588Z,10.40
2023-04-21T00:45:34.671Z,10.40
2023-04-21T00:48:01.957Z,10.60
2023-04-21T00:50:29.183Z,10.70
2023-04-21T00:52:57.605Z,10.20
2023-04-21T00:55:25.751Z,10.00
2023-04-21T00:57:56.328Z,10.30
2023-04-21T01:00:24.055Z,10.20
2023-04-21T01:02:51.478Z,10.00
2023-04-21T01:05:19.122Z,10.10
2023-04-21T01:07:46.602Z,9.90
2023-04-21T01:10:13.777Z,9.90
2023-04-21T01:12:46.023Z,10.00
2023-04-21T01:15:16.176Z,10.00
2023-04-21T01:17:43.930Z,10.10
2023-04-21T01:20:14.517Z,10.40
2023-04-21T01:22:42.855Z,10.00
2023-04-21T01:25:10.433Z,10.20
2023-04-21T01:27:37.678Z,10.10
2023-04-21T01:30:07.555Z,10.20
2023-04-21T01:32:34.761Z,10.10
2023-04-21T01:35:02.255Z,10.40
2023-04-21T01:37:33.081Z,10.00
2023-04-21T01:40:09.292Z,9.90
2023-04-21T01:42:43.429Z,10.00
2023-04-21T01:45:12.210Z,9.80
2023-04-21T01:47:39.642Z,9.90
2023-04-21T01:50:08.065Z,10.00
2023-04-21T01:52:35.156Z,9.80
2023-04-21T01:55:02.429Z,9.70
2023-04-21T01:57:29.571Z,9.70
2023-04-21T01:59:57.637Z,9.70
2023-04-21T02:02:24.908Z,9.70
2023-04-21T02:04:52.173Z,9.70
2023-04-21T02:07:19.267Z,9.80
2023-04-21T02:09:46.441Z,9.90
2023-04-21T02:12:13.523Z,9.60
2023-04-21T02:14:40.955Z,9.60
2023-04-21T02:17:08.081Z,9.70
2023-04-21T02:19:35.429Z,9.70
2023-04-21T02:22:02.606Z,9.60
2023-04-21T02:24:29.715Z,9.60
2023-04-21T02:26:58.316Z,9.80
2023-04-21T02:29:25.904Z,9.90
2023-04-21T02:32:02.964Z,9.80
2023-04-21T02:34:32.616Z,9.60
2023-04-21T02:36:59.978Z,9.50
2023-04-21T02:39:27.193Z,9.50
2023-04-21T02:41:54.593Z,9.30
2023-04-21T02:44:21.658Z,9.40
2023-04-21T02:46:48.775Z,9.40
2023-04-21T02:49:16.043Z,9.30
2023-04-21T02:51:43.168Z,9.30
2023-04-21T02:54:11.139Z,9.00
2023-04-21T02:56:38.305Z,9.30
2023-04-21T02:59:05.408Z,9.20
2023-04-21T03:01:32.517Z,9.00
2023-04-21T03:03:59.875Z,9.30
2023-04-21T03:06:28.304Z,9.20
2023-04-21T03:08:55.503Z,9.30
2023-04-21T03:11:22.630Z,9.20
2023-04-21T03:13:49.784Z,9.30
2023-04-21T03:16:17.251Z,8.80
2023-04-21T03:18:44.783Z,9.10
2023-04-21T03:21:14.308Z,9.20
2023-04-21T03:23:44.042Z,9.20
2023-04-21T03:26:11.634Z,9.20
2023-04-21T03:28:38.909Z,9.10
2023-04-21T03:31:08.486Z,9.30
2023-04-21T03:33:35.628Z,9.20
2023-04-21T03:36:05.173Z,9.10
2023-04-21T03:38:32.459Z,9.20
2023-04-21T03:40:59.607Z,8.90
2023-04-21T03:43:26.749Z,8.90
2023-04-21T03:45:53.891Z,9.20
2023-04-21T03:48:21.294Z,8.90
2023-04-21T03:50:48.447Z,8.80
2023-04-21T03:53:15.622Z,8.90
2023-04-21T03:55:42.726Z,9.20
2023-04-21T03:58:10.030Z,9.20
2023-04-21T04:00:37.185Z,9.20
2023-04-21T04:03:04.507Z,8.90
2023-04-21T04:05:32.262Z,9.40
2023-04-21T04:07:59.299Z,9.40
2023-04-21T04:10:26.383Z,9.20
2023-04-21T04:12:53.525Z,9.20
2023-04-21T04:15:20.681Z,9.40
2023-04-21T04:17:47.894Z,9.30
2023-04-21T04:20:15.426Z,9.50
2023-04-21T04:22:45.314Z,9.70
2023-04-21T04:25:15.268Z,9.50
2023-04-21T04:27:45.855Z,9.70
2023-04-21T04:30:14.050Z,9.70
2023-04-21T04:32:41.605Z,10.30
2023-04-21T04:35:10.255Z,9.80
2023-04-21T04:37:38.174Z,9.90
2023-04-21T04:40:07.174Z,10.50
2023-04-21T04:42:34.876Z,10.40
2023-04-21T04:45:02.822Z,10.90
2023-04-21T04:47:29.972Z,11.30
2023-04-21T04:49:57.061Z,11.90
2023-04-21T04:52:24.104Z,12.10
2023-04-21T04:54:51.406Z,12.10
2023-04-21T04:57:18.496Z,12.40
2023-04-21T04:59:46.628Z,12.60
2023-04-21T05:02:14.041Z,12.00
2023-04-21T05:04:41.355Z,11.70
2023-04-21T05:07:08.597Z,11.30
2023-04-21T05:09:36.011Z,10.90
2023-04-21T05:12:03.377Z,10.90
2023-04-21T05:14:30.550Z,10.70
2023-04-21T05:16:57.804Z,10.40
2023-04-21T05:19:25.260Z,10.70
2023-04-21T05:21:53.219Z,10.40
2023-04-21T05:24:24.508Z,10.50
2023-04-21T05:26:51.617Z,10.60
2023-04-21T05:29:18.729Z,10.80
2023-04-21T05:31:45.890Z,10.80
2023-04-21T05:34:13.123Z,10.80
2023-04-21T05:36:43.070Z,10.90
2023-04-21T05:39:10.491Z,11.10
2023-04-21T05:41:37.618Z,11.20
2023-04-21T05:44:04.830Z,11.40
2023-04-21T05:46:34.910Z,11.30
2023-04-21T05:49:05.344Z,11.80
2023-04-21T05:51:32.666Z,11.90
2023-04-21T05:53:59.768Z,12.00
2023-04-21T05:56:26.925Z,12.30
2023-04-21T05:58:54.127Z,12.10
2023-04-21T06:01:21.316Z,12.20
2023-04-21T06:03:51.364Z,12.30
2023-04-21T06:06:18.852Z,12.30
2023-04-21T06:08:45.974Z,12.60
2023-04-21T06:11:13.110Z,12.70
2023-04-21T06:13:42.285Z,13.70
2023-04-21T06:16:10.724Z,15.10
2023-04-21T06:18:37.898Z,15.10
2023-04-21T06:21:05.753Z,16.50
2023-04-21T06:23:33.054Z,16.60
2023-04-21T06:26:06.871Z,17.30
2023-04-21T06:28:40.837Z,18.40
2023-04-21T06:31:09.968Z,19.10
2023-04-21T06:33:38.569Z,19.00
2023-04-21T06:36:11.019Z,19.20
2023-04-21T06:38:40.134Z,20.70
2023-04-21T06:41:08.494Z,20.10
2023-04-21T06:43:35.800Z,19.20
2023-04-21T06:46:03.175Z,18.50
2023-04-21T06:48:32.876Z,18.10
2023-04-21T06:51:01.488Z,18.10
2023-04-21T06:53:28.848Z,19.90
2023-04-21T06:55:56.129Z,21.10
2023-04-21T06:58:23.660Z,20.70
2023-04-21T07:00:51.411Z,20.00
2023-04-21T07:03:18.854Z,19.90
2023-04-21T07:05:46.257Z,19.20
2023-04-21T07:08:13.563Z,17.80
2023-04-21T07:10:41.105Z,17.50
2023-04-21T07:13:10.076Z,17.60
2023-04-21T07:15:37.512Z,17.70
2023-04-21T07:18:04.806Z,17.80
2023-04-21T07:20:32.014Z,17.00
2023-04-21T07:22:59.113Z,17.00
2023-04-21T07:25:26.518Z,16.90
2023-04-21T07:27:55.108Z,17.10
2023-04-21T07:30:22.361Z,17.40
2023-04-21T07:32:49.673Z,17.60
2023-04-21T07:35:17.661Z,17.90
2023-04-21T07:37:45.327Z,17.80
2023-04-21T07:40:13.120Z,17.30
2023-04-21T07:42:40.366Z,17.40
2023-04-21T07:45:08.205Z,17.00
2023-04-21T07:47:35.585Z,16.80
2023-04-21T07:50:03.317Z,16.70
2023-04-21T07:52:30.536Z,16.50
2023-04-21T07:54:57.591Z,13.70
2023-04-21T07:57:25.406Z,19.10
2023-04-21T07:59:52.466Z,19.40
2023-04-21T08:02:22.333Z,21.00
2023-04-21T08:04:49.709Z,22.30
2023-04-21T08:07:16.964Z,22.80
2023-04-21T08:09:44.071Z,22.70
2023-04-21T08:12:11.189Z,22.70
2023-04-21T08:14:38.426Z,22.80
2023-04-21T08:17:05.729Z,22.70
2023-04-21T08:19:34.243Z,21.70
2023-04-21T08:22:01.424Z,22.00
2023-04-21T08:24:28.600Z,22.80
2023-04-21T08:27:00.154Z,23.00
2023-04-21T08:29:37.105Z,23.10
2023-04-21T08:32:10.995Z,23.50
2023-04-21T08:34:38.498Z,23.40
2023-04-21T08:37:06.049Z,23.00
2023-04-21T08:39:36.216Z,23.10
2023-04-21T08:42:05.021Z,23.40
2023-04-21T08:44:32.205Z,23.30
2023-04-21T08:47:01.660Z,22.90
2023-04-21T08:49:31.774Z,22.60
2023-04-21T08:52:01.348Z,22.40
2023-04-21T08:54:29.982Z,21.80
2023-04-21T08:57:11.843Z,21.60
2023-04-21T08:59:47.722Z,22.50
2023-04-21T09:02:17.664Z,22.60
2023-04-21T09:04:52.042Z,23.70
2023-04-21T09:07:37.719Z,24.90
2023-04-21T09:10:06.994Z,25.70
2023-04-21T09:12:34.313Z,26.60
2023-04-21T09:15:09.609Z,26.80
2023-04-21T09:17:38.733Z,26.40
2023-04-21T09:20:19.280Z,26.30
2023-04-21T09:22:51.445Z,25.90
2023-04-21T09:25:22.951Z,24.90
2023-04-21T09:27:50.322Z,24.50
2023-04-21T09:30:20.920Z,24.50
2023-04-21T09:32:48.315Z,25.30
2023-04-21T09:35:15.801Z,25.20
2023-04-21T09:37:46.230Z,22.80
2023-04-21T09:40:15.436Z,23.70
2023-04-21T09:42:44.563Z,24.10
2023-04-21T09:47:54.725Z,25.30
2023-04-21T09:50:54.334Z,25.60
2023-04-21T09:53:17.202Z,25.40
2023-04-21T09:55:49.538Z,25.40
2023-04-21T09:58:22.733Z,25.80
2023-04-21T10:00:55.596Z,26.10
2023-04-21T10:03:28.463Z,25.50
2023-04-21T10:05:56.464Z,25.40
2023-04-21T10:08:23.579Z,24.50
2023-04-21T10:10:52.963Z,24.20
2023-04-21T10:13:21.626Z,23.50
2023-04-21T10:15:48.979Z,23.50
2023-04-21T10:18:25.296Z,23.50
2023-04-21T10:21:02.024Z,22.90
2023-04-21T10:23:42.180Z,22.40
2023-04-21T10:26:15.571Z,21.70
2023-04-21T10:29:00.329Z,22.30
2023-04-21T10:32:00.212Z,22.90
2023-04-21T10:34:35.581Z,23.30
2023-04-21T10:37:05.698Z,23.20
2023-04-21T10:39:53.173Z,23.10
2023-04-21T10:42:26.502Z,22.70
2023-04-21T10:45:04.726Z,22.60
2023-04-21T10:47:41.222Z,22.80
2023-04-21T10:50:19.490Z,23.00
2023-04-21T10:52:56.651Z,22.90
2023-04-21T10:55:30.971Z,22.50
2023-04-21T10:58:05.095Z,22.50
2023-04-21T11:00:33.666Z,22.50
2023-04-21T11:03:05.035Z,22.10
2023-04-21T11:05:39.161Z,22.30
2023-04-21T11:08:11.466Z,22.10
2023-04-21T11:10:53.905Z,22.20
2023-04-21T11:13:23.560Z,22.10
2023-04-21T11:16:06.851Z,22.30
2023-04-21T11:18:45.314Z,22.20
2023-04-21T11:21:21.663Z,22.20
2023-04-21T11:23:57.277Z,22.00
2023-04-21T11:26:41.004Z,22.20
2023-04-21T11:29:11.136Z,22.00
2023-04-21T11:31:42.865Z,22.10
2023-04-21T11:34:10.476Z,21.90
2023-04-21T11:36:44.082Z,21.80
2023-04-21T11:39:14.212Z,21.80
2023-04-21T11:41:47.448Z,21.90
2023-04-21T11:44:32.198Z,21.90
2023-04-21T11:46:59.508Z,21.50
2023-04-21T11:49:33.225Z,21.90
2023-04-21T11:52:00.466Z,22.10
2023-04-21T11:54:29.889Z,22.20
2023-04-21T11:56:57.226Z,22.30
2023-04-21T11:59:26.474Z,22.30
2023-04-21T12:01:56.913Z,22.30
2023-04-21T12:04:26.129Z,22.40
2023-04-21T12:07:02.365Z,22.20
2023-04-21T12:09:30.621Z,22.20
2023-04-21T12:11:59.101Z,22.20
2023-04-21T12:14:29.309Z,22.10
2023-04-21T12:16:58.576Z,22.50
2023-04-21T12:19:41.050Z,22.60
2023-04-21T12:22:10.185Z,22.30
2023-04-21T12:24:38.346Z,22.00
2023-04-21T12:27:06.658Z,21.70
2023-04-21T12:29:35.840Z,21.60
2023-04-21T12:32:03.915Z,21.60
2023-04-21T12:34:31.303Z,21.30
2023-04-21T12:36:58.508Z,21.30
2023-04-21T12:39:28.015Z,21.10
2023-04-21T12:41:55.985Z,20.90
2023-04-21T12:44:23.181Z,21.20
2023-04-21T12:46:50.793Z,21.20
2023-04-21T12:49:19.557Z,20.80
2023-04-21T12:51:47.342Z,20.70
2023-04-21T12:54:15.535Z,21.00
2023-04-21T12:56:43.334Z,21.40
2023-04-21T12:59:11.370Z,22.30
2023-04-21T13:01:40.710Z,22.80
2023-04-21T13:04:13.052Z,22.60
2023-04-21T13:06:40.842Z,22.50
2023-04-21T13:09:12.689Z,22.10
2023-04-21T13:11:40.012Z,21.40
2023-04-21T13:14:07.691Z,21.40
2023-04-21T13:16:34.931Z,21.20
2023-04-21T13:19:02.117Z,21.40
2023-04-21T13:21:38.665Z,21.20
2023-04-21T13:24:06.231Z,21.00
2023-04-21T13:26:35.256Z,21.20
2023-04-21T13:29:04.351Z,21.00
2023-04-21T13:31:32.613Z,21.00
2023-04-21T13:34:01.376Z,20.90
2023-04-21T13:36:28.728Z,21.00
2023-04-21T13:38:56.442Z,20.90
2023-04-21T13:41:23.590Z,21.00
2023-04-21T13:43:50.989Z,20.80
2023-04-21T13:46:20.449Z,20.80
2023-04-21T13:48:47.751Z,21.00
2023-04-21T13:51:15.034Z,20.80
2023-04-21T13:53:42.263Z,20.60
2023-04-21T13:56:14.201Z,20.60
2023-04-21T13:58:42.098Z,20.70
2023-04-21T14:01:09.798Z,20.50
2023-04-21T14:03:37.319Z,20.40
2023-04-21T14:06:05.271Z,20.40
2023-04-21T14:08:33.086Z,20.40
2023-04-21T14:11:00.665Z,20.40
2023-04-21T14:16:03.809Z,20.50
2023-04-21T14:18:31.024Z,20.50
2023-04-21T14:20:58.164Z,20.50
2023-04-21T14:23:25.367Z,20.50
2023-04-21T14:25:54.965Z,20.40
2023-04-21T14:28:22.746Z,20.40
2023-04-21T14:30:49.841Z,20.40
2023-04-21T14:33:16.993Z,20.50
2023-04-21T14:35:44.340Z,20.30
2023-04-21T14:38:11.673Z,20.60
2023-04-21T14:40:38.805Z,20.40
2023-04-21T14:43:06.383Z,20.30
2023-04-21T14:45:33.763Z,20.20
2023-04-21T14:48:01.050Z,20.20
2023-04-21T14:50:28.263Z,20.30
2023-04-21T14:52:55.470Z,20.20
2023-04-21T14:55:23.678Z,20.20
2023-04-21T14:57:52.363Z,20.20
2023-04-21T15:00:20.764Z,20.00
2023-04-21T15:02:48.068Z,19.80
2023-04-21T15:05:15.713Z,20.00
2023-04-21T15:07:43.118Z,19.80
2023-04-21T15:10:14.038Z,19.60
2023-04-21T15:12:42.030Z,19.90
2023-04-21T15:15:10.291Z,19.70
2023-04-21T15:17:37.874Z,19.50
2023-04-21T15:20:05.912Z,19.70
2023-04-21T15:22:33.378Z,19.50
2023-04-21T15:25:00.612Z,19.50
2023-04-21T15:27:30.278Z,19.50
2023-04-21T15:29:57.444Z,19.70
2023-04-21T15:32:27.116Z,19.60
2023-04-21T15:34:54.364Z,19.60
2023-04-21T15:37:24.195Z,19.40
2023-04-21T15:39:52.925Z,19.60
2023-04-21T15:42:20.737Z,19.30
2023-04-21T15:44:48.093Z,19.40
2023-04-21T15:47:17.181Z,19.10
2023-04-21T15:49:44.331Z,19.30
2023-04-21T15:52:12.097Z,19.10
2023-04-21T15:54:39.622Z,19.30
2023-04-21T15:57:07.227Z,19.20
2023-04-21T15:59:34.420Z,19.30
2023-04-21T16:02:01.767Z,18.90
2023-04-21T16:04:29.268Z,18.90
2023-04-21T16:06:56.696Z,19.20
2023-04-21T16:09:25.664Z,19.20
2023-04-21T16:11:52.966Z,18.90
2023-04-21T16:14:20.377Z,19.10
2023-04-21T16:16:47.679Z,19.00
2023-04-21T16:19:14.948Z,18.80
2023-04-21T16:21:43.080Z,18.40
2023-04-21T16:24:10.992Z,18.70
2023-04-21T16:26:38.366Z,18.60
2023-04-21T16:29:05.772Z,18.50
2023-04-21T16:31:35.558Z,18.30
2023-04-21T16:34:02.847Z,18.20
2023-04-21T16:36:31.447Z,18.30
2023-04-21T16:38:59.302Z,18.20
2023-04-21T16:41:26.714Z,18.10
2023-04-21T16:43:53.936Z,18.30
2023-04-21T16:46:21.387Z,18.20
2023-04-21T16:48:48.793Z,18.10
2023-04-21T16:51:16.256Z,17.90
2023-04-21T16:53:43.440Z,18.00
2023-04-21T16:56:10.817Z,17.90
2023-04-21T16:58:38.062Z,17.70
2023-04-21T17:01:07.655Z,17.80
2023-04-21T17:03:35.152Z,17.80
2023-04-21T17:06:04.778Z,17.60
2023-04-21T17:08:31.905Z,17.40
2023-04-21T17:11:00.172Z,17.60
2023-04-21T17:13:27.591Z,17.60
2023-04-21T17:15:55.632Z,17.50
2023-04-21T17:18:22.939Z,17.40
2023-04-21T17:20:50.262Z,17.20
2023-04-21T17:23:17.523Z,17.20
2023-04-21T17:25:44.908Z,17.20
2023-04-21T17:28:12.157Z,17.20
2023-04-21T17:30:39.356Z,17.10
2023-04-21T17:33:16.055Z,17.10
2023-04-21T17:35:59.872Z,16.80
2023-04-21T17:38:29.891Z,16.90
2023-04-21T17:40:57.111Z,16.80
2023-04-21T17:43:24.550Z,16.70
2023-04-21T17:45:52.517Z,16.60
2023-04-21T17:48:21.130Z,16.40
2023-04-21T17:50:48.305Z,16.50
2023-04-21T17:53:15.784Z,16.40
2023-04-21T17:55:43.180Z,16.30
2023-04-21T17:58:12.537Z,15.90
2023-04-21T18:00:40.156Z,16.20
2023-04-21T18:03:08.640Z,16.00
2023-04-21T18:05:36.006Z,16.00
2023-04-21T18:08:03.391Z,16.20
2023-04-21T18:10:30.820Z,15.90
2023-04-21T18:12:58.700Z,15.90
2023-04-21T18:15:26.175Z,15.80
2023-04-21T18:17:53.475Z,15.70
2023-04-21T18:20:20.920Z,15.60
2023-04-21T18:22:49.659Z,15.10
2023-04-21T18:25:27.309Z,15.00
2023-04-21T18:28:08.614Z,15.10
2023-04-21T18:30:39.653Z,14.90
2023-04-21T18:33:07.259Z,14.80
2023-04-21T18:35:34.481Z,15.10
2023-04-21T18:38:07.997Z,14.80
2023-04-21T18:40:37.208Z,14.80
2023-04-21T18:43:05.570Z,15.10
2023-04-21T18:45:33.710Z,14.70
2023-04-21T18:48:00.958Z,14.60
2023-04-21T18:50:29.060Z,14.50
2023-04-21T18:52:56.554Z,14.60
2023-04-21T18:55:23.799Z,14.50
2023-04-21T18:57:51.054Z,14.50
2023-04-21T19:00:18.312Z,14.00
2023-04-21T19:02:48.852Z,14.30
2023-04-21T19:05:16.524Z,14.20
2023-04-21T19:07:44.060Z,13.70
2023-04-21T19:10:11.454Z,14.00
2023-04-21T19:12:38.866Z,13.60
2023-04-21T19:15:07.003Z,13.60
2023-04-21T19:17:34.267Z,13.40
2023-04-21T19:20:01.517Z,13.50
2023-04-21T19:22:32.072Z,13.30
2023-04-21T19:24:59.296Z,13.40
2023-04-21T19:27:26.427Z,13.50
2023-04-21T19:29:53.723Z,13.50
2023-04-21T19:32:21.185Z,13.60
2023-04-21T19:34:48.541Z,13.10
2023-04-21T19:37:15.840Z,13.10
2023-04-21T19:39:43.197Z,13.10
2023-04-21T19:42:10.501Z,13.40
2023-04-21T19:44:39.409Z,13.40
2023-04-21T19:47:10.059Z,13.20
2023-04-21T19:49:37.430Z,13.30
2023-04-21T19:52:04.853Z,13.20
2023-04-21T19:54:37.335Z,13.00
2023-04-21T19:57:04.941Z,13.20
2023-04-21T19:59:41.306Z,13.00
2023-04-21T20:02:09.837Z,13.20
2023-04-21T20:04:39.959Z,13.30
2023-04-21T20:07:07.506Z,12.90
2023-04-21T20:09:35.391Z,13.00
2023-04-21T20:12:02.668Z,13.10
2023-04-21T20:14:29.931Z,12.80
2023-04-21T20:16:58.658Z,12.70
2023-04-21T20:19:27.189Z,13.00
2023-04-21T20:21:54.415Z,12.60
2023-04-21T20:24:24.632Z,12.40
2023-04-21T20:26:51.766Z,12.40
2023-04-21T20:29:19.649Z,12.20
2023-04-21T20:31:47.037Z,12.30
2023-04-21T20:34:14.371Z,12.40
2023-04-21T20:36:41.624Z,12.10
2023-04-21T20:39:09.161Z,11.90
2023-04-21T20:41:36.443Z,12.50
2023-04-21T20:44:03.943Z,12.00
2023-04-21T20:46:31.204Z,12.30
2023-04-21T20:48:58.539Z,12.20
2023-04-21T20:51:27.000Z,11.80
2023-04-21T20:53:55.471Z,11.70
2023-04-21T20:56:22.603Z,12.00
2023-04-21T20:58:50.036Z,11.70
2023-04-21T21:01:18.176Z,11.80
2023-04-21T21:03:46.579Z,11.80
2023-04-21T21:06:14.711Z,11.70
2023-04-21T21:08:42.230Z,11.50
2023-04-21T21:11:09.437Z,11.70
2023-04-21T21:13:36.712Z,11.60
2023-04-21T21:16:04.017Z,11.50
2023-04-21T21:18:34.758Z,11.60
2023-04-21T21:21:02.194Z,11.40
2023-04-21T21:23:29.449Z,11.20
2023-04-21T21:25:58.715Z,11.30
2023-04-21T21:28:27.620Z,11.20
2023-04-21T21:30:54.706Z,11.00
2023-04-21T21:33:21.786Z,11.00
2023-04-21T21:35:49.701Z,10.90
2023-04-21T21:38:16.910Z,10.90
2023-04-21T21:40:44.130Z,10.50
2023-04-21T21:43:11.168Z,10.50
2023-04-21T21:45:38.926Z,10.30
2023-04-21T21:48:06.252Z,10.20
2023-04-21T21:50:33.639Z,10.10
2023-04-21T21:53:00.713Z,10.20
2023-04-21T21:55:28.172Z,10.40
2023-04-21T21:57:55.328Z,10.30
2023-04-21T22:00:22.853Z,10.30
2023-04-21T22:02:50.141Z,10.20
2023-04-21T22:05:17.784Z,10.30
2023-04-21T22:07:45.623Z,10.20
2023-04-21T22:10:12.834Z,10.20
2023-04-21T22:12:40.169Z,10.10
2023-04-21T22:15:08.226Z,10.10
2023-04-21T22:17:36.202Z,9.90
2023-04-21T22:20:04.834Z,9.80
2023-04-21T22:22:32.035Z,9.70
2023-04-21T22:24:59.141Z,9.40
2023-04-21T22:27:26.205Z,9.70
2023-04-21T22:29:54.592Z,9.30
2023-04-21T22:32:21.939Z,9.50
2023-04-21T22:34:49.082Z,9.90
2023-04-21T22:37:16.275Z,9.60
2023-04-21T22:39:43.343Z,9.90
2023-04-21T22:42:10.642Z,9.90
2023-04-21T22:44:37.854Z,9.90
2023-04-21T22:47:05.115Z,9.80
2023-04-21T22:49:32.448Z,10.00
2023-04-21T22:51:59.481Z,9.70
2023-04-21T22:54:26.524Z,9.70
2023-04-21T22:56:54.281Z,9.80
2023-04-21T22:59:21.423Z,9.90
2023-04-21T23:01:48.622Z,9.40
2023-04-21T23:04:15.787Z,9.60
2023-04-21T23:06:42.879Z,9.30
2023-04-21T23:09:10.040Z,9.40
2023-04-21T23:11:37.314Z,9.40
2023-04-21T23:14:04.428Z,9.40
2023-04-21T23:16:31.965Z,9.40
2023-04-21T23:18:59.074Z,9.40
2023-04-21T23:21:26.616Z,9.40
2023-04-21T23:23:53.702Z,9.20
2023-04-21T23:26:21.781Z,9.10
2023-04-21T23:28:51.329Z,9.20
2023-04-21T23:31:18.531Z,9.10
2023-04-21T23:33:45.755Z,9.10
2023-04-21T23:36:13.049Z,8.90
2023-04-21T23:38:40.364Z,9.10
2023-04-21T23:41:07.711Z,8.60
2023-04-21T23:43:37.217Z,8.70
2023-04-21T23:46:04.765Z,8.60
2023-04-21T23:48:32.100Z,8.80
2023-04-21T23:51:01.747Z,8.80
2023-04-21T23:53:29.023Z,8.70
2023-04-21T23:55:56.275Z,8.70
2023-04-21T23:58:23.577Z,8.80
